WalkMe (WKME) Institutional Ownership

$8.39
0.00 (0.00%)
(As of 05/17/2024 ET)

Institutional Ownership Changes (13F Filings) for WalkMe (NASDAQ:WKME)

Current
Institutional Ownership
Percentage
70.91%
Number of
Institutional Buyers
(last 12 months)
23
Total
Institutional Inflows
(last 12 months)
$21.29M
Number of
Institutional Sellers
(last 12 months)
8
Total
Institutional Outflows
(last 12 months)
$11.42M
Get WKME Insider Trade Alerts

Want to know when executives and insiders are buying or selling WalkMe stock? Sign up for InsiderTrades.com's daily newsletter to get the latest insider transactions delivered to your inbox daily.

Skip Chart & View Institutional Buying and Selling Data

WKME Institutional Buying and Selling by Quarter

WalkMe Major Shareholders & Ownership History

Reporting DateMajor Shareholder NameShares HeldMarket Value% of PortfolioQuarterly Change in SharesOwnership in CompanyDetails
5/17/2024 Tidal Investments LLC33,657$289K0.0%N/A0.039%
5/16/2024 California State Teachers Retirement System26,070$224K0.0%+9.1%0.030%
5/15/2024 Quadrature Capital Ltd68,703$589K0.0%+14.8%0.079%
5/13/2024 Clearbridge Investments LLC695,126$5.98M0.0%-1.3%0.801%
5/10/2024 Acadian Asset Management LLC256,431$2.19M0.0%+74.2%0.295%
5/3/2024 GSA Capital Partners LLP77,964$670K0.1%-1.7%0.090%
4/25/2024 Horrell Capital Management Inc.303,459$2.61M0.7%+231.4%0.350%
4/23/2024 Rice Hall James & Associates LLC339,437$2.92M0.2%+22.6%0.391%
4/18/2024 Allspring Global Investments Holdings LLC899,870$7.74M0.0%-10.6%1.037%
3/25/2024 Quadrature Capital Ltd59,862$637K0.0%+203.9%0.069%
2/14/2024 Scalar Gauge Management LLC570,061$6.08M5.8%N/A0.000%
2/13/2024 Circumference Group LLC91,559$977K0.8%N/A0.000%
2/9/2024 Trexquant Investment LP12,651$135K0.0%N/A0.000%
2/9/2024 Clearbridge Investments LLC704,631$7.52M0.0%-22.2%0.000%
2/6/2024 Swiss National Bank43,687$466K0.0%-10.6%0.000%
1/25/2024 Allspring Global Investments Holdings LLC1,006,334$10.74M0.0%-1.7%0.000%
1/17/2024 ARK Investment Management LLC207,136$2.21M0.0%-18.3%0.000%
12/6/2023 Citigroup Inc.24,060$228K0.0%+6.5%0.029%
11/14/2023 Corton Capital Inc.39,851$378K0.2%+114.1%0.000%
11/14/2023 B. Riley Asset Management LLC1,318,554$12.50M5.0%+9.0%0.000%
11/13/2023 Clearbridge Investments LLC905,700$8.59M0.0%-4.2%0.000%
11/13/2023 Acadian Asset Management LLC93,820$884K0.0%N/A0.000%
11/7/2023 Prosperity Wealth Management Inc.32,110$304K0.2%+6.9%0.000%
11/7/2023 Jump Financial LLC15,000$142K0.0%N/A0.000%
11/2/2023 Rice Hall James & Associates LLC294,075$2.79M0.2%-2.1%0.000%
11/2/2023 M&T Bank Corp12,997$123K0.0%+23.4%0.000%
11/1/2023 Orion Portfolio Solutions LLC15,418$146K0.0%-35.0%0.000%
10/27/2023 Allspring Global Investments Holdings LLC1,023,470$9.70M0.0%-13.1%0.000%
10/18/2023 ARK Investment Management LLC253,573$2.40M0.0%+34.5%0.000%
9/21/2023 Barclays PLC7,924$76K0.0%N/A0.000%
8/15/2023 Potrero Capital Research LLC334,989$3.22M2.0%+95.2%0.405%
8/15/2023 Boothbay Fund Management LLC541,778$5.20M0.1%+55.1%0.000%
8/14/2023 B. Riley Asset Management LLC1,209,756$11.61M4.3%+32.5%0.000%
8/14/2023 Portolan Capital Management LLC206,961$1.99M0.2%-71.9%0.000%
8/14/2023 EVR Research LP3,030,000$29.09M7.8%+0.7%0.000%
8/11/2023 Clearbridge Investments LLC945,021$9.07M0.0%+1.0%0.000%
8/4/2023 Simplex Trading LLC3,092$29K0.0%N/A0.000%
7/24/2023 Allspring Global Investments Holdings LLC1,178,046$11.31M0.0%+0.7%0.000%
7/24/2023 Rice Hall James & Associates LLC300,438$2.88M0.2%+8.7%0.000%
7/18/2023 Allspring Global Investments Holdings LLC1,178,046$11.31M0.0%+0.7%0.000%
Bill Gates is all about this tiny $2 stock (Ad)

What does Bill Gates know about this tiny company that we don’t? From the outside, it looks like a worthless $2 stock…

>>Click here to discover why Bill Gates is all about this tiny $2 stock.
7/10/2023 ARK Investment Management LLC188,561$1.81M0.0%-20.7%0.000%
5/15/2023 Potrero Capital Research LLC171,590$1.83M1.1%+300.5%0.208%
5/15/2023 Portolan Capital Management LLC736,423$7.84M0.7%-7.3%0.891%
5/12/2023 Clearbridge Investments LLC935,712$9.96M0.0%+2.1%1.132%
5/12/2023 Rice Hall James & Associates LLC276,294$2.94M0.2%+29.7%0.334%
5/5/2023 Horrell Capital Management Inc.91,569$974K0.3%+20.5%0.111%
5/2/2023 Harel Insurance Investments & Financial Services Ltd.3,554$38K0.0%+46.3%0.004%
4/21/2023 Harbor Investment Advisory LLC21,300$227K0.0%+80.5%0.026%
4/18/2023ETF Managers Group LLC47,701$508K0.0%N/A0.058%
4/17/2023 ARK Investment Management LLC237,689$2.53M0.0%-13.3%0.288%
4/13/2023 Allspring Global Investments Holdings LLC1,169,760$12.45M0.0%-3.8%1.415%
2/15/2023 B. Riley Asset Management LLC750,165$8.39M3.8%+121.8%0.908%
2/14/2023 Portolan Capital Management LLC794,278$8.88M0.9%-7.2%0.961%
2/13/2023 EVR Research LP3,109,515$34.76M10.5%-2.1%3.762%
2/10/2023 Clearbridge Investments LLC916,136$10.24M0.0%-0.5%1.108%
2/8/2023 Tradewinds LLC.31,892$4.52M2.9%N/A0.039%
2/7/2023 Envestnet Asset Management Inc.61,451$687K0.0%-13.8%0.074%
1/30/2023 Horrell Capital Management Inc.76,010$850K0.3%N/A0.092%
1/27/2023 Rice Hall James & Associates LLC212,948$2.38M0.1%+248.3%0.258%
1/24/2023 Harbor Investment Advisory LLC11,800$132K0.0%-55.1%0.014%
1/24/2023 ARK Investment Management LLC274,107$3.07M0.0%+9.7%0.332%
1/23/2023 Allspring Global Investments Holdings LLC1,215,886$13.59M0.0%-3.1%1.471%
11/18/2022 EVR Research LP3,177,000$27.01M8.0%+14.6%3.844%
11/15/2022 Portolan Capital Management LLC856,020$7.28M0.8%+254.2%1.036%
11/15/2022 Kent Lake Capital LLC150,000$1.28M0.8%N/A0.181%
11/15/2022ETF Managers Group LLC45,995$391K0.0%+8.2%0.056%
11/14/2022 B. Riley Asset Management LLC338,258$2.88M1.5%+1.3%0.409%
11/14/2022 Lazard Asset Management LLC4,676$39K0.0%N/A0.006%
11/14/2022 Boothbay Fund Management LLC74,918$637K0.0%+18.8%0.091%
11/14/2022 Altshuler Shaham Ltd5,000$43K0.0%N/A0.006%
11/10/2022 Phoenix Holdings Ltd.45,712$394K0.0%-80.3%0.055%
11/1/2022 Rice Hall James & Associates LLC61,140$520K0.0%N/A0.074%
10/26/2022 Allspring Global Investments Holdings LLC1,255,018$10.67M0.0%-2.1%1.518%
10/17/2022 ARK Investment Management LLC249,939$2.12M0.0%+73.8%0.302%
8/16/2022 B. Riley Asset Management LLC333,900$3.38M1.6%N/A0.404%
8/11/2022 Clearbridge Investments LLC921,971$9.34M0.0%+7.8%1.115%
8/5/2022 M&T Bank Corp13,352$135K0.0%N/A0.016%
8/3/2022 Envestnet Asset Management Inc.71,814$727K0.0%+87.1%0.087%
7/25/2022 Allspring Global Investments Holdings LLC1,282,164$12.99M0.0%+10.9%1.551%
7/19/2022 Harel Insurance Investments & Financial Services Ltd.3,304$33K0.0%N/A0.004%
7/18/2022 Harbor Investment Advisory LLC26,300$266K0.0%-32.9%0.032%
7/13/2022 Evanson Asset Management LLC20,676$209K0.0%N/A0.025%
7/11/2022 ARK Investment Management LLC143,817$1.41M0.0%-4.7%0.174%
5/10/2022 Phoenix Holdings Ltd.223,751$3.38M0.1%-0.8%0.271%
5/5/2022Inverness Counsel LLC NY12,500$189K0.0%N/A0.015%
5/4/2022 Vitruvian Partners LLP5,921,122$89.35M9.5%+6.1%7.164%
5/4/2022 Envestnet Asset Management Inc.38,379$579K0.0%+70.4%0.046%
4/20/2022 Harbor Investment Advisory LLC39,200$592K0.1%+11.0%0.047%
4/19/2022 ARK Investment Management LLC150,944$2.28M0.0%+19.6%0.183%
4/14/2022 Frontier Capital Management Co. LLC85,703$1.29M0.0%-47.0%0.104%
Elon’s New Device is About to Shock the World (Ad)

Using this device you see above… Elon Musk just tested a new type of A.I. that according to Wired Magazine will usher in… “The next step in human evolution.”

Click here to see the details because there’s a lot of money at stake.
2/25/2022 EDBI Pte Ltd761,864$14.96M8.1%N/A0.922%
2/15/2022 Laurion Capital Management LP67,700$1.33M0.0%-2.7%0.082%
2/15/2022 Adage Capital Partners GP L.L.C.535,000$10.50M0.0%+12.6%0.647%
2/14/2022 Diker Management LLC144,963$2.85M1.9%N/A0.175%
2/14/2022Alpha Paradigm Partners LLC44,204$868K0.3%+103.0%0.053%
2/14/2022ETF Managers Group LLC30,679$611K0.0%N/A0.037%
2/14/2022 Optimus Prime Fund Management Co. Ltd.145,000$2.85M0.2%+7.4%0.175%
2/10/2022 Edmond DE Rothschild Holding S.A.282,200$5.54M0.1%+83.7%0.341%
2/7/2022 Harel Insurance Investments & Financial Services Ltd.4,060$81K0.0%N/A0.005%
2/7/2022 Phoenix Holdings Ltd.225,582$4.43M0.1%N/A0.273%
(Data available from 1/1/2016 forward)

WKME Institutional Ownership - Frequently Asked Questions

Who are the largest shareholders of WKME shares?

During the previous two years, 37 institutional investors and hedge funds held shares of WalkMe. The most heavily invested institutionals were EVR Research LP ($29.09M), B. Riley Asset Management LLC ($12.50M), Allspring Global Investments Holdings LLC ($7.74M), Scalar Gauge Management LLC ($6.08M), Clearbridge Investments LLC ($5.98M), Boothbay Fund Management LLC ($5.20M), and Tradewinds LLC. ($4.52M).Learn more on WKME's institutional investors.

What percentage of WalkMe stock is owned by institutional investors?

70.91% of WalkMe stock is owned by institutional investors. Learn more on WKME's institutional investor holdings.

Which institutional investors have been buying WalkMe stock?

Of the 33 institutional investors that purchased WalkMe stock in the last 24 months, the following investors and hedge funds have bought the highest volume of shares: B. Riley Asset Management LLC ($1.16M), Portolan Capital Management LLC ($614.34K), Scalar Gauge Management LLC ($570.06K), EVR Research LP ($424.36K), Rice Hall James & Associates LLC ($363.11K), Horrell Capital Management Inc. ($303.47K), and Potrero Capital Research LLC ($292.15K).

How much institutional buying is happening at WalkMe?

Institutional investors have bought a total of 5,130,320 shares in the last 24 months. This purchase volume represents approximately $49.76M in transactions.

Which WalkMe major shareholders have been selling company stock?

Of the 12 institutional investors that sold WalkMe stock in the last 24 months, the following investors and hedge funds have sold the highest volume of shares: Portolan Capital Management LLC ($649.06K), Allspring Global Investments Holdings LLC ($390.58K), Clearbridge Investments LLC ($254.11K), Phoenix Holdings Ltd. ($186.59K), ARK Investment Management LLC ($139.11K), EVR Research LP ($67.49K), and Harbor Investment Advisory LLC ($27.40K).

How much institutional selling is happening at WalkMe?

Institutional investors have sold a total of 1,745,452 shares in the last 24 months. This volume of shares sold represents approximately $17.14M in transactions.


This page (NASDAQ:WKME) was last updated on 5/19/2024 by MarketBeat.com Staff

From Our Partners